sensor_id;sensor_type;location;lat;lon;timestamp;temperature;humidity
36416;DHT22;22447;44.530;18.620;2023-03-05T00:01:33;2.50;99.90
36416;DHT22;22447;44.530;18.620;2023-03-05T00:04:00;2.40;99.90
36416;DHT22;22447;44.530;18.620;2023-03-05T00:06:28;2.50;99.90
36416;DHT22;22447;44.530;18.620;2023-03-05T00:08:55;2.40;99.90
36416;DHT22;22447;44.530;18.620;2023-03-05T00:11:24;2.30;99.90
36416;DHT22;22447;44.530;18.620;2023-03-05T00:13:53;2.50;99.90
36416;DHT22;22447;44.530;18.620;2023-03-05T00:16:19;2.50;99.90
36416;DHT22;22447;44.530;18.620;2023-03-05T00:18:46;2.60;99.90
36416;DHT22;22447;44.530;18.620;2023-03-05T00:21:21;2.60;99.90
36416;DHT22;22447;44.530;18.620;2023-03-05T00:23:48;2.50;99.90
36416;DHT22;22447;44.530;18.620;2023-03-05T00:26:19;2.40;99.90
36416;DHT22;22447;44.530;18.620;2023-03-05T00:28:47;2.40;99.90
36416;DHT22;22447;44.530;18.620;2023-03-05T00:31:19;2.20;99.90
36416;DHT22;22447;44.530;18.620;2023-03-05T00:33:49;2.30;99.90
36416;DHT22;22447;44.530;18.620;2023-03-05T00:36:15;2.40;99.90
36416;DHT22;22447;44.530;18.620;2023-03-05T00:38:41;2.40;99.90
36416;DHT22;22447;44.530;18.620;2023-03-05T00:41:07;2.30;99.90
36416;DHT22;22447;44.530;18.620;2023-03-05T00:43:33;2.30;99.90
36416;DHT22;22447;44.530;18.620;2023-03-05T00:45:59;2.30;99.90
36416;DHT22;22447;44.530;18.620;2023-03-05T00:48:25;2.30;99.90
36416;DHT22;22447;44.530;18.620;2023-03-05T00:50:51;2.30;99.90
36416;DHT22;22447;44.530;18.620;2023-03-05T00:53:18;2.30;99.90
36416;DHT22;22447;44.530;18.620;2023-03-05T00:55:43;2.40;99.90
36416;DHT22;22447;44.530;18.620;2023-03-05T00:58:09;2.50;99.90
36416;DHT22;22447;44.530;18.620;2023-03-05T01:00:36;2.40;99.90
36416;DHT22;22447;44.530;18.620;2023-03-05T01:03:02;2.40;99.90
36416;DHT22;22447;44.530;18.620;2023-03-05T01:05:28;2.40;99.90
36416;DHT22;22447;44.530;18.620;2023-03-05T01:07:56;2.50;99.90
36416;DHT22;22447;44.530;18.620;2023-03-05T01:10:24;2.50;99.90
36416;DHT22;22447;44.530;18.620;2023-03-05T01:12:55;2.50;99.90
36416;DHT22;22447;44.530;18.620;2023-03-05T01:15:21;2.40;99.90
36416;DHT22;22447;44.530;18.620;2023-03-05T01:17:48;2.40;99.90
36416;DHT22;22447;44.530;18.620;2023-03-05T01:20:15;2.40;99.90
36416;DHT22;22447;44.530;18.620;2023-03-05T01:22:41;2.30;99.90
36416;DHT22;22447;44.530;18.620;2023-03-05T01:25:07;2.40;99.90
36416;DHT22;22447;44.530;18.620;2023-03-05T01:27:33;2.40;99.90
36416;DHT22;22447;44.530;18.620;2023-03-05T01:30:00;2.40;99.90
36416;DHT22;22447;44.530;18.620;2023-03-05T01:32:26;2.50;99.90
36416;DHT22;22447;44.530;18.620;2023-03-05T01:34:52;2.50;99.90
36416;DHT22;22447;44.530;18.620;2023-03-05T01:37:18;2.50;99.90
36416;DHT22;22447;44.530;18.620;2023-03-05T01:39:44;2.40;99.90
36416;DHT22;22447;44.530;18.620;2023-03-05T01:42:10;2.40;99.90
36416;DHT22;22447;44.530;18.620;2023-03-05T01:44:36;2.40;99.90
36416;DHT22;22447;44.530;18.620;2023-03-05T01:47:02;2.40;99.90
36416;DHT22;22447;44.530;18.620;2023-03-05T01:49:39;2.40;99.90
36416;DHT22;22447;44.530;18.620;2023-03-05T01:52:15;2.40;99.90
36416;DHT22;22447;44.530;18.620;2023-03-05T01:54:45;2.30;99.90
36416;DHT22;22447;44.530;18.620;2023-03-05T01:57:15;2.30;99.90
36416;DHT22;22447;44.530;18.620;2023-03-05T01:59:43;2.30;99.90
36416;DHT22;22447;44.530;18.620;2023-03-05T02:02:12;2.40;99.90
36416;DHT22;22447;44.530;18.620;2023-03-05T02:05:09;2.50;99.90
36416;DHT22;22447;44.530;18.620;2023-03-05T02:07:35;2.60;99.90
36416;DHT22;22447;44.530;18.620;2023-03-05T02:12:40;2.70;99.90
36416;DHT22;22447;44.530;18.620;2023-03-05T02:15:07;2.70;99.90
36416;DHT22;22447;44.530;18.620;2023-03-05T02:17:33;2.70;99.90
36416;DHT22;22447;44.530;18.620;2023-03-05T02:20:08;2.70;99.90
36416;DHT22;22447;44.530;18.620;2023-03-05T02:22:34;2.60;99.90
36416;DHT22;22447;44.530;18.620;2023-03-05T02:25:00;2.60;99.90
36416;DHT22;22447;44.530;18.620;2023-03-05T02:27:30;2.60;99.90
36416;DHT22;22447;44.530;18.620;2023-03-05T02:30:00;2.60;99.90
36416;DHT22;22447;44.530;18.620;2023-03-05T02:32:26;2.70;99.90
36416;DHT22;22447;44.530;18.620;2023-03-05T02:34:53;2.70;99.90
36416;DHT22;22447;44.530;18.620;2023-03-05T02:37:19;2.70;99.90
36416;DHT22;22447;44.530;18.620;2023-03-05T02:39:45;2.70;99.90
36416;DHT22;22447;44.530;18.620;2023-03-05T02:42:11;2.70;99.90
36416;DHT22;22447;44.530;18.620;2023-03-05T02:44:37;2.80;99.90
36416;DHT22;22447;44.530;18.620;2023-03-05T02:47:03;2.80;99.90
36416;DHT22;22447;44.530;18.620;2023-03-05T02:49:31;2.80;99.90
36416;DHT22;22447;44.530;18.620;2023-03-05T02:51:57;2.80;99.90
36416;DHT22;22447;44.530;18.620;2023-03-05T02:54:23;2.90;99.90
36416;DHT22;22447;44.530;18.620;2023-03-05T02:56:49;2.80;99.90
36416;DHT22;22447;44.530;18.620;2023-03-05T02:59:15;2.70;99.90
36416;DHT22;22447;44.530;18.620;2023-03-05T03:01:41;2.70;99.90
36416;DHT22;22447;44.530;18.620;2023-03-05T03:04:07;2.60;99.90
36416;DHT22;22447;44.530;18.620;2023-03-05T03:06:33;2.70;99.90
36416;DHT22;22447;44.530;18.620;2023-03-05T03:08:59;2.70;99.90
36416;DHT22;22447;44.530;18.620;2023-03-05T03:11:25;2.80;99.90
36416;DHT22;22447;44.530;18.620;2023-03-05T03:13:50;2.80;99.90
36416;DHT22;22447;44.530;18.620;2023-03-05T03:16:16;2.70;99.90
36416;DHT22;22447;44.530;18.620;2023-03-05T03:18:42;2.70;99.90
36416;DHT22;22447;44.530;18.620;2023-03-05T03:21:23;2.50;99.90
36416;DHT22;22447;44.530;18.620;2023-03-05T03:23:49;2.50;99.90
36416;DHT22;22447;44.530;18.620;2023-03-05T03:26:16;2.50;99.90
36416;DHT22;22447;44.530;18.620;2023-03-05T03:28:42;2.50;99.90
36416;DHT22;22447;44.530;18.620;2023-03-05T03:31:08;2.50;99.90
36416;DHT22;22447;44.530;18.620;2023-03-05T03:33:34;2.50;99.90
36416;DHT22;22447;44.530;18.620;2023-03-05T03:36:00;2.50;99.90
36416;DHT22;22447;44.530;18.620;2023-03-05T03:38:26;2.50;99.90
36416;DHT22;22447;44.530;18.620;2023-03-05T03:40:52;2.30;99.90
36416;DHT22;22447;44.530;18.620;2023-03-05T03:43:18;2.30;99.90
36416;DHT22;22447;44.530;18.620;2023-03-05T03:45:44;2.30;99.90
36416;DHT22;22447;44.530;18.620;2023-03-05T03:48:10;2.30;99.90
36416;DHT22;22447;44.530;18.620;2023-03-05T03:50:40;2.30;99.90
36416;DHT22;22447;44.530;18.620;2023-03-05T03:53:07;2.20;99.90
36416;DHT22;22447;44.530;18.620;2023-03-05T03:55:33;2.20;99.90
36416;DHT22;22447;44.530;18.620;2023-03-05T03:57:59;2.10;99.90
36416;DHT22;22447;44.530;18.620;2023-03-05T04:00:26;2.20;99.90
36416;DHT22;22447;44.530;18.620;2023-03-05T04:02:52;2.20;99.90
36416;DHT22;22447;44.530;18.620;2023-03-05T04:05:18;2.10;99.90
36416;DHT22;22447;44.530;18.620;2023-03-05T04:07:43;2.10;99.90
36416;DHT22;22447;44.530;18.620;2023-03-05T04:10:11;2.10;99.90
36416;DHT22;22447;44.530;18.620;2023-03-05T04:12:37;2.10;99.90
36416;DHT22;22447;44.530;18.620;2023-03-05T04:15:04;2.10;99.90
36416;DHT22;22447;44.530;18.620;2023-03-05T04:17:32;2.20;99.90
36416;DHT22;22447;44.530;18.620;2023-03-05T04:19:58;2.10;99.90
36416;DHT22;22447;44.530;18.620;2023-03-05T04:22:24;2.20;99.90
36416;DHT22;22447;44.530;18.620;2023-03-05T04:24:50;2.10;99.90
36416;DHT22;22447;44.530;18.620;2023-03-05T04:27:16;2.20;99.90
36416;DHT22;22447;44.530;18.620;2023-03-05T04:29:42;2.20;99.90
36416;DHT22;22447;44.530;18.620;2023-03-05T04:32:08;2.20;99.90
36416;DHT22;22447;44.530;18.620;2023-03-05T04:34:36;2.10;99.90
36416;DHT22;22447;44.530;18.620;2023-03-05T04:37:02;2.20;99.90
36416;DHT22;22447;44.530;18.620;2023-03-05T04:39:28;2.20;99.90
36416;DHT22;22447;44.530;18.620;2023-03-05T04:41:54;2.20;99.90
36416;DHT22;22447;44.530;18.620;2023-03-05T04:44:20;2.30;99.90
36416;DHT22;22447;44.530;18.620;2023-03-05T04:46:48;2.30;99.90
36416;DHT22;22447;44.530;18.620;2023-03-05T04:49:14;2.30;99.90
36416;DHT22;22447;44.530;18.620;2023-03-05T04:51:40;2.20;99.90
36416;DHT22;22447;44.530;18.620;2023-03-05T04:54:07;2.30;99.90
36416;DHT22;22447;44.530;18.620;2023-03-05T04:56:33;2.30;99.90
36416;DHT22;22447;44.530;18.620;2023-03-05T04:58:59;2.30;99.90
36416;DHT22;22447;44.530;18.620;2023-03-05T05:01:25;2.20;99.90
36416;DHT22;22447;44.530;18.620;2023-03-05T05:03:51;2.20;99.90
36416;DHT22;22447;44.530;18.620;2023-03-05T05:06:17;2.10;99.90
36416;DHT22;22447;44.530;18.620;2023-03-05T05:08:43;2.10;99.90
36416;DHT22;22447;44.530;18.620;2023-03-05T05:11:12;2.10;99.90
36416;DHT22;22447;44.530;18.620;2023-03-05T05:13:38;2.10;99.90
36416;DHT22;22447;44.530;18.620;2023-03-05T05:16:08;2.10;99.90
36416;DHT22;22447;44.530;18.620;2023-03-05T05:18:34;2.20;99.90
36416;DHT22;22447;44.530;18.620;2023-03-05T05:20:59;2.20;99.90
36416;DHT22;22447;44.530;18.620;2023-03-05T05:23:26;2.30;99.90
36416;DHT22;22447;44.530;18.620;2023-03-05T05:25:56;2.20;99.90
36416;DHT22;22447;44.530;18.620;2023-03-05T05:28:22;2.30;99.90
36416;DHT22;22447;44.530;18.620;2023-03-05T05:30:48;2.30;99.90
36416;DHT22;22447;44.530;18.620;2023-03-05T05:33:14;2.20;99.90
36416;DHT22;22447;44.530;18.620;2023-03-05T05:35:40;2.30;99.90
36416;DHT22;22447;44.530;18.620;2023-03-05T05:38:06;2.40;99.90
36416;DHT22;22447;44.530;18.620;2023-03-05T05:40:32;2.40;99.90
36416;DHT22;22447;44.530;18.620;2023-03-05T05:42:58;2.50;99.90
36416;DHT22;22447;44.530;18.620;2023-03-05T05:45:24;2.50;99.90
36416;DHT22;22447;44.530;18.620;2023-03-05T05:47:50;2.50;99.90
36416;DHT22;22447;44.530;18.620;2023-03-05T05:50:18;2.50;99.90
36416;DHT22;22447;44.530;18.620;2023-03-05T05:52:44;2.40;99.90
36416;DHT22;22447;44.530;18.620;2023-03-05T05:55:10;2.50;99.90
36416;DHT22;22447;44.530;18.620;2023-03-05T05:57:36;2.50;99.90
36416;DHT22;22447;44.530;18.620;2023-03-05T06:00:05;2.40;99.90
36416;DHT22;22447;44.530;18.620;2023-03-05T06:02:41;2.40;99.90
36416;DHT22;22447;44.530;18.620;2023-03-05T06:05:08;2.40;99.90
36416;DHT22;22447;44.530;18.620;2023-03-05T06:07:36;2.40;99.90
36416;DHT22;22447;44.530;18.620;2023-03-05T06:10:03;2.40;99.90
36416;DHT22;22447;44.530;18.620;2023-03-05T06:12:29;2.50;99.90
36416;DHT22;22447;44.530;18.620;2023-03-05T06:14:55;2.50;99.90
36416;DHT22;22447;44.530;18.620;2023-03-05T06:17:21;2.60;99.90
36416;DHT22;22447;44.530;18.620;2023-03-05T06:19:47;2.70;99.90
36416;DHT22;22447;44.530;18.620;2023-03-05T06:22:13;2.70;99.90
36416;DHT22;22447;44.530;18.620;2023-03-05T06:24:39;2.80;99.90
36416;DHT22;22447;44.530;18.620;2023-03-05T06:27:05;2.80;99.90
36416;DHT22;22447;44.530;18.620;2023-03-05T06:29:31;2.90;99.90
36416;DHT22;22447;44.530;18.620;2023-03-05T06:31:57;3.10;99.90
36416;DHT22;22447;44.530;18.620;2023-03-05T06:34:23;3.10;99.90
36416;DHT22;22447;44.530;18.620;2023-03-05T06:36:49;3.10;99.90
36416;DHT22;22447;44.530;18.620;2023-03-05T06:39:15;3.20;99.90
36416;DHT22;22447;44.530;18.620;2023-03-05T06:41:41;3.20;99.90
36416;DHT22;22447;44.530;18.620;2023-03-05T06:44:08;3.30;99.90
36416;DHT22;22447;44.530;18.620;2023-03-05T06:46:35;3.30;99.90
36416;DHT22;22447;44.530;18.620;2023-03-05T06:49:04;3.30;99.90
36416;DHT22;22447;44.530;18.620;2023-03-05T06:51:34;3.40;99.90
36416;DHT22;22447;44.530;18.620;2023-03-05T06:54:03;3.50;99.90
36416;DHT22;22447;44.530;18.620;2023-03-05T06:56:29;3.50;99.90
36416;DHT22;22447;44.530;18.620;2023-03-05T06:58:55;3.50;99.90
36416;DHT22;22447;44.530;18.620;2023-03-05T07:01:22;3.60;99.90
36416;DHT22;22447;44.530;18.620;2023-03-05T07:03:50;3.70;99.90
36416;DHT22;22447;44.530;18.620;2023-03-05T07:06:16;3.60;99.90
36416;DHT22;22447;44.530;18.620;2023-03-05T07:08:43;3.60;99.90
36416;DHT22;22447;44.530;18.620;2023-03-05T07:11:17;3.70;99.90
36416;DHT22;22447;44.530;18.620;2023-03-05T07:13:43;3.70;99.90
36416;DHT22;22447;44.530;18.620;2023-03-05T07:16:14;3.70;99.90
36416;DHT22;22447;44.530;18.620;2023-03-05T07:18:40;3.80;99.90
36416;DHT22;22447;44.530;18.620;2023-03-05T07:21:08;3.80;99.90
36416;DHT22;22447;44.530;18.620;2023-03-05T07:23:35;3.80;99.90
36416;DHT22;22447;44.530;18.620;2023-03-05T07:26:02;3.90;99.90
36416;DHT22;22447;44.530;18.620;2023-03-05T07:28:29;3.90;99.90
36416;DHT22;22447;44.530;18.620;2023-03-05T07:30:57;4.00;99.90
36416;DHT22;22447;44.530;18.620;2023-03-05T07:33:24;3.90;99.90
36416;DHT22;22447;44.530;18.620;2023-03-05T07:35:51;3.80;99.90
36416;DHT22;22447;44.530;18.620;2023-03-05T07:38:17;3.80;99.90
36416;DHT22;22447;44.530;18.620;2023-03-05T07:40:42;3.80;99.90
36416;DHT22;22447;44.530;18.620;2023-03-05T07:43:08;3.90;99.90
36416;DHT22;22447;44.530;18.620;2023-03-05T07:45:39;4.10;99.90
36416;DHT22;22447;44.530;18.620;2023-03-05T07:48:05;4.20;99.90
36416;DHT22;22447;44.530;18.620;2023-03-05T07:50:31;4.00;99.90
36416;DHT22;22447;44.530;18.620;2023-03-05T07:52:58;4.10;99.90
36416;DHT22;22447;44.530;18.620;2023-03-05T07:55:24;4.20;99.90
36416;DHT22;22447;44.530;18.620;2023-03-05T07:57:50;4.10;99.90
36416;DHT22;22447;44.530;18.620;2023-03-05T08:00:17;4.20;99.90
36416;DHT22;22447;44.530;18.620;2023-03-05T08:02:43;4.20;99.90
36416;DHT22;22447;44.530;18.620;2023-03-05T08:05:10;4.30;99.90
36416;DHT22;22447;44.530;18.620;2023-03-05T08:07:36;4.20;99.90
36416;DHT22;22447;44.530;18.620;2023-03-05T08:10:03;4.30;99.90
36416;DHT22;22447;44.530;18.620;2023-03-05T08:12:29;4.20;99.90
36416;DHT22;22447;44.530;18.620;2023-03-05T08:14:55;4.30;99.90
36416;DHT22;22447;44.530;18.620;2023-03-05T08:17:21;4.40;99.90
36416;DHT22;22447;44.530;18.620;2023-03-05T08:19:47;4.50;99.90
36416;DHT22;22447;44.530;18.620;2023-03-05T08:22:13;4.60;99.90
36416;DHT22;22447;44.530;18.620;2023-03-05T08:24:41;4.60;99.90
36416;DHT22;22447;44.530;18.620;2023-03-05T08:27:08;4.70;99.90
36416;DHT22;22447;44.530;18.620;2023-03-05T08:29:34;4.70;99.90
36416;DHT22;22447;44.530;18.620;2023-03-05T08:32:00;4.90;99.90
36416;DHT22;22447;44.530;18.620;2023-03-05T08:34:26;5.00;99.90
36416;DHT22;22447;44.530;18.620;2023-03-05T08:36:51;4.90;99.90
36416;DHT22;22447;44.530;18.620;2023-03-05T08:39:17;5.00;99.90
36416;DHT22;22447;44.530;18.620;2023-03-05T08:41:44;5.10;99.90
36416;DHT22;22447;44.530;18.620;2023-03-05T08:44:11;5.20;99.90
36416;DHT22;22447;44.530;18.620;2023-03-05T08:46:40;5.00;99.90
36416;DHT22;22447;44.530;18.620;2023-03-05T08:49:06;5.00;99.90
36416;DHT22;22447;44.530;18.620;2023-03-05T08:51:33;5.10;99.90
36416;DHT22;22447;44.530;18.620;2023-03-05T08:54:00;5.10;99.90
36416;DHT22;22447;44.530;18.620;2023-03-05T08:56:27;5.30;99.90
36416;DHT22;22447;44.530;18.620;2023-03-05T08:58:55;5.40;99.90
36416;DHT22;22447;44.530;18.620;2023-03-05T09:01:22;5.50;99.90
36416;DHT22;22447;44.530;18.620;2023-03-05T09:03:48;5.50;99.90
36416;DHT22;22447;44.530;18.620;2023-03-05T09:06:14;5.70;99.90
36416;DHT22;22447;44.530;18.620;2023-03-05T09:08:40;5.60;99.90
36416;DHT22;22447;44.530;18.620;2023-03-05T09:11:08;5.70;99.90
36416;DHT22;22447;44.530;18.620;2023-03-05T09:13:34;5.70;99.90
36416;DHT22;22447;44.530;18.620;2023-03-05T09:16:03;5.90;99.90
36416;DHT22;22447;44.530;18.620;2023-03-05T09:18:29;6.00;99.90
36416;DHT22;22447;44.530;18.620;2023-03-05T09:20:55;6.20;99.90
36416;DHT22;22447;44.530;18.620;2023-03-05T09:23:22;6.20;99.90
36416;DHT22;22447;44.530;18.620;2023-03-05T09:25:48;6.30;99.90
36416;DHT22;22447;44.530;18.620;2023-03-05T09:28:15;6.30;99.90
36416;DHT22;22447;44.530;18.620;2023-03-05T09:30:41;6.20;99.90
36416;DHT22;22447;44.530;18.620;2023-03-05T09:33:07;6.50;99.90
36416;DHT22;22447;44.530;18.620;2023-03-05T09:35:35;6.70;99.90
36416;DHT22;22447;44.530;18.620;2023-03-05T09:38:02;6.90;99.90
36416;DHT22;22447;44.530;18.620;2023-03-05T09:40:47;6.90;99.90
36416;DHT22;22447;44.530;18.620;2023-03-05T09:51:21;7.30;99.90
36416;DHT22;22447;44.530;18.620;2023-03-05T09:53:57;7.50;99.90
36416;DHT22;22447;44.530;18.620;2023-03-05T09:56:39;7.70;99.90
36416;DHT22;22447;44.530;18.620;2023-03-05T10:01:44;7.70;99.90
36416;DHT22;22447;44.530;18.620;2023-03-05T10:04:24;7.60;99.90
36416;DHT22;22447;44.530;18.620;2023-03-05T10:07:32;8.00;99.90
36416;DHT22;22447;44.530;18.620;2023-03-05T10:12:40;8.40;99.90
36416;DHT22;22447;44.530;18.620;2023-03-05T10:15:30;8.50;99.90
36416;DHT22;22447;44.530;18.620;2023-03-05T10:18:32;8.40;99.90
36416;DHT22;22447;44.530;18.620;2023-03-05T10:21:14;8.60;99.90
36416;DHT22;22447;44.530;18.620;2023-03-05T10:24:02;8.90;99.90
36416;DHT22;22447;44.530;18.620;2023-03-05T10:32:49;9.20;99.90
36416;DHT22;22447;44.530;18.620;2023-03-05T10:40:48;8.70;99.90
36416;DHT22;22447;44.530;18.620;2023-03-05T10:46:02;9.20;99.90
36416;DHT22;22447;44.530;18.620;2023-03-05T10:48:36;9.30;99.90
36416;DHT22;22447;44.530;18.620;2023-03-05T10:51:16;9.20;99.90
36416;DHT22;22447;44.530;18.620;2023-03-05T10:56:12;8.80;99.90
36416;DHT22;22447;44.530;18.620;2023-03-05T10:58:40;9.30;99.90
36416;DHT22;22447;44.530;18.620;2023-03-05T11:03:57;9.70;99.90
36416;DHT22;22447;44.530;18.620;2023-03-05T11:06:31;10.10;99.90
36416;DHT22;22447;44.530;18.620;2023-03-05T11:11:43;10.20;99.90
36416;DHT22;22447;44.530;18.620;2023-03-05T11:14:29;10.30;99.90
36416;DHT22;22447;44.530;18.620;2023-03-05T11:16:59;10.70;99.90
36416;DHT22;22447;44.530;18.620;2023-03-05T11:19:30;10.70;99.90
36416;DHT22;22447;44.530;18.620;2023-03-05T11:22:15;10.40;99.90
36416;DHT22;22447;44.530;18.620;2023-03-05T11:24:42;10.50;99.90
36416;DHT22;22447;44.530;18.620;2023-03-05T11:27:28;10.60;99.90
36416;DHT22;22447;44.530;18.620;2023-03-05T11:29:56;10.80;99.90
36416;DHT22;22447;44.530;18.620;2023-03-05T11:32:25;10.90;99.90
36416;DHT22;22447;44.530;18.620;2023-03-05T11:34:53;11.20;99.90
36416;DHT22;22447;44.530;18.620;2023-03-05T11:37:30;11.10;99.90
36416;DHT22;22447;44.530;18.620;2023-03-05T11:40:17;11.30;99.90
36416;DHT22;22447;44.530;18.620;2023-03-05T11:42:50;11.60;99.90
36416;DHT22;22447;44.530;18.620;2023-03-05T11:45:18;11.80;99.90
36416;DHT22;22447;44.530;18.620;2023-03-05T11:47:52;12.10;99.90
36416;DHT22;22447;44.530;18.620;2023-03-05T11:50:29;12.20;99.90
36416;DHT22;22447;44.530;18.620;2023-03-05T11:58:25;12.00;99.90
36416;DHT22;22447;44.530;18.620;2023-03-05T12:00:52;12.10;99.90
36416;DHT22;22447;44.530;18.620;2023-03-05T12:03:21;12.00;99.90
36416;DHT22;22447;44.530;18.620;2023-03-05T12:05:56;11.70;99.90
36416;DHT22;22447;44.530;18.620;2023-03-05T12:08:31;11.80;99.90
36416;DHT22;22447;44.530;18.620;2023-03-05T12:11:03;11.30;99.90
36416;DHT22;22447;44.530;18.620;2023-03-05T12:13:35;11.40;99.90
36416;DHT22;22447;44.530;18.620;2023-03-05T12:21:49;12.60;99.90
36416;DHT22;22447;44.530;18.620;2023-03-05T12:29:48;12.50;99.90
36416;DHT22;22447;44.530;18.620;2023-03-05T12:35:01;12.90;99.90
36416;DHT22;22447;44.530;18.620;2023-03-05T12:47:44;12.20;99.90
36416;DHT22;22447;44.530;18.620;2023-03-05T12:53:06;11.80;99.90
36416;DHT22;22447;44.530;18.620;2023-03-05T13:01:14;12.70;99.90
36416;DHT22;22447;44.530;18.620;2023-03-05T13:03:44;12.50;99.90
36416;DHT22;22447;44.530;18.620;2023-03-05T13:06:28;12.10;99.90
36416;DHT22;22447;44.530;18.620;2023-03-05T13:09:05;12.20;99.90
36416;DHT22;22447;44.530;18.620;2023-03-05T13:11:33;12.50;99.90
36416;DHT22;22447;44.530;18.620;2023-03-05T13:14:02;12.30;99.90
36416;DHT22;22447;44.530;18.620;2023-03-05T13:16:38;12.30;99.90
36416;DHT22;22447;44.530;18.620;2023-03-05T13:19:14;12.40;99.90
36416;DHT22;22447;44.530;18.620;2023-03-05T13:21:41;13.10;99.90
36416;DHT22;22447;44.530;18.620;2023-03-05T13:24:17;13.40;99.90
36416;DHT22;22447;44.530;18.620;2023-03-05T13:26:44;13.30;99.90
36416;DHT22;22447;44.530;18.620;2023-03-05T13:29:18;13.60;99.90
36416;DHT22;22447;44.530;18.620;2023-03-05T13:31:59;13.70;99.90
36416;DHT22;22447;44.530;18.620;2023-03-05T13:34:29;13.70;99.90
36416;DHT22;22447;44.530;18.620;2023-03-05T13:37:00;13.60;99.90
36416;DHT22;22447;44.530;18.620;2023-03-05T13:39:32;13.50;99.90
36416;DHT22;22447;44.530;18.620;2023-03-05T13:42:05;13.10;99.90
36416;DHT22;22447;44.530;18.620;2023-03-05T13:44:33;13.10;99.90
36416;DHT22;22447;44.530;18.620;2023-03-05T13:47:14;13.30;99.90
36416;DHT22;22447;44.530;18.620;2023-03-05T13:49:41;12.60;99.90
36416;DHT22;22447;44.530;18.620;2023-03-05T13:52:09;12.50;99.90
36416;DHT22;22447;44.530;18.620;2023-03-05T13:54:36;12.20;99.90
36416;DHT22;22447;44.530;18.620;2023-03-05T13:57:04;12.30;99.90
36416;DHT22;22447;44.530;18.620;2023-03-05T13:59:33;11.90;99.90
36416;DHT22;22447;44.530;18.620;2023-03-05T14:02:14;12.00;99.90
36416;DHT22;22447;44.530;18.620;2023-03-05T14:04:42;12.10;99.90
36416;DHT22;22447;44.530;18.620;2023-03-05T14:09:49;12.30;99.90
36416;DHT22;22447;44.530;18.620;2023-03-05T14:12:38;12.30;99.90
36416;DHT22;22447;44.530;18.620;2023-03-05T14:15:27;12.50;99.90
36416;DHT22;22447;44.530;18.620;2023-03-05T14:20:39;12.00;99.90
36416;DHT22;22447;44.530;18.620;2023-03-05T14:23:29;11.70;99.90
36416;DHT22;22447;44.530;18.620;2023-03-05T14:28:53;11.20;99.90
36416;DHT22;22447;44.530;18.620;2023-03-05T14:31:20;11.30;99.90
36416;DHT22;22447;44.530;18.620;2023-03-05T14:33:48;11.30;99.90
36416;DHT22;22447;44.530;18.620;2023-03-05T14:36:23;11.30;99.90
36416;DHT22;22447;44.530;18.620;2023-03-05T14:38:49;11.40;99.90
36416;DHT22;22447;44.530;18.620;2023-03-05T14:43:54;11.60;99.90
36416;DHT22;22447;44.530;18.620;2023-03-05T14:46:20;11.80;99.90
36416;DHT22;22447;44.530;18.620;2023-03-05T14:48:46;12.10;99.90
36416;DHT22;22447;44.530;18.620;2023-03-05T14:51:12;12.10;99.90
36416;DHT22;22447;44.530;18.620;2023-03-05T14:53:43;12.30;99.90
36416;DHT22;22447;44.530;18.620;2023-03-05T14:58:41;12.30;99.90
36416;DHT22;22447;44.530;18.620;2023-03-05T15:01:10;12.40;99.90
36416;DHT22;22447;44.530;18.620;2023-03-05T15:03:36;11.90;99.90
36416;DHT22;22447;44.530;18.620;2023-03-05T15:06:05;11.30;99.90
36416;DHT22;22447;44.530;18.620;2023-03-05T15:08:31;11.30;99.90
36416;DHT22;22447;44.530;18.620;2023-03-05T15:10:58;11.50;99.90
36416;DHT22;22447;44.530;18.620;2023-03-05T15:13:25;11.20;99.90
36416;DHT22;22447;44.530;18.620;2023-03-05T15:15:52;10.90;99.90
36416;DHT22;22447;44.530;18.620;2023-03-05T15:18:20;11.10;99.90
36416;DHT22;22447;44.530;18.620;2023-03-05T15:20:47;11.20;99.90
36416;DHT22;22447;44.530;18.620;2023-03-05T15:23:14;11.10;99.90
36416;DHT22;22447;44.530;18.620;2023-03-05T15:25:40;11.30;99.90
36416;DHT22;22447;44.530;18.620;2023-03-05T15:28:06;11.20;99.90
36416;DHT22;22447;44.530;18.620;2023-03-05T15:30:35;11.00;99.90
36416;DHT22;22447;44.530;18.620;2023-03-05T15:33:04;10.90;99.90
36416;DHT22;22447;44.530;18.620;2023-03-05T15:35:31;10.90;99.90
36416;DHT22;22447;44.530;18.620;2023-03-05T15:37:57;10.90;99.90
36416;DHT22;22447;44.530;18.620;2023-03-05T15:40:23;10.80;99.90
36416;DHT22;22447;44.530;18.620;2023-03-05T15:42:49;10.80;99.90
36416;DHT22;22447;44.530;18.620;2023-03-05T15:45:16;10.60;99.90
36416;DHT22;22447;44.530;18.620;2023-03-05T15:47:42;10.50;99.90
36416;DHT22;22447;44.530;18.620;2023-03-05T15:50:08;10.40;99.90
36416;DHT22;22447;44.530;18.620;2023-03-05T15:52:34;10.30;99.90
36416;DHT22;22447;44.530;18.620;2023-03-05T15:55:01;10.00;99.90
36416;DHT22;22447;44.530;18.620;2023-03-05T15:57:27;9.90;99.90
36416;DHT22;22447;44.530;18.620;2023-03-05T15:59:53;9.80;99.90
36416;DHT22;22447;44.530;18.620;2023-03-05T16:02:20;9.60;99.90
36416;DHT22;22447;44.530;18.620;2023-03-05T16:04:46;9.50;99.90
36416;DHT22;22447;44.530;18.620;2023-03-05T16:07:13;9.40;99.90
36416;DHT22;22447;44.530;18.620;2023-03-05T16:09:43;9.40;99.90
36416;DHT22;22447;44.530;18.620;2023-03-05T16:12:17;9.10;99.90
36416;DHT22;22447;44.530;18.620;2023-03-05T16:14:45;8.80;99.90
36416;DHT22;22447;44.530;18.620;2023-03-05T16:17:12;8.60;99.90
36416;DHT22;22447;44.530;18.620;2023-03-05T16:19:42;8.50;99.90
36416;DHT22;22447;44.530;18.620;2023-03-05T16:22:09;8.40;99.90
36416;DHT22;22447;44.530;18.620;2023-03-05T16:24:35;8.20;99.90
36416;DHT22;22447;44.530;18.620;2023-03-05T16:27:01;8.00;99.90
36416;DHT22;22447;44.530;18.620;2023-03-05T16:29:29;7.80;99.90
36416;DHT22;22447;44.530;18.620;2023-03-05T16:31:57;7.60;99.90
36416;DHT22;22447;44.530;18.620;2023-03-05T16:34:23;7.50;99.90
36416;DHT22;22447;44.530;18.620;2023-03-05T16:36:51;7.30;99.90
36416;DHT22;22447;44.530;18.620;2023-03-05T16:39:21;7.20;99.90
36416;DHT22;22447;44.530;18.620;2023-03-05T16:41:48;7.00;99.90
36416;DHT22;22447;44.530;18.620;2023-03-05T16:44:14;6.80;99.90
36416;DHT22;22447;44.530;18.620;2023-03-05T16:46:40;6.70;99.90
36416;DHT22;22447;44.530;18.620;2023-03-05T16:49:08;6.50;99.90
36416;DHT22;22447;44.530;18.620;2023-03-05T16:51:34;6.40;99.90
36416;DHT22;22447;44.530;18.620;2023-03-05T16:54:00;6.30;99.90
36416;DHT22;22447;44.530;18.620;2023-03-05T16:56:26;6.30;99.90
36416;DHT22;22447;44.530;18.620;2023-03-05T16:58:54;6.20;99.90
36416;DHT22;22447;44.530;18.620;2023-03-05T17:01:21;6.10;99.90
36416;DHT22;22447;44.530;18.620;2023-03-05T17:03:55;5.80;99.90
36416;DHT22;22447;44.530;18.620;2023-03-05T17:06:24;5.70;99.90